sensor_id;sensor_type;location;lat;lon;timestamp;P1;durP1;ratioP1;P2;durP2;ratioP2
37091;SDS011;23005;51.998;4.502;2022-11-14T00:00:07;35.28;;;22.60;;
37091;SDS011;23005;51.998;4.502;2022-11-14T00:01:44;36.80;;;22.40;;
37091;SDS011;23005;51.998;4.502;2022-11-14T00:03:25;34.40;;;22.13;;
37091;SDS011;23005;51.998;4.502;2022-11-14T00:05:07;36.75;;;23.27;;
37091;SDS011;23005;51.998;4.502;2022-11-14T00:06:48;32.00;;;21.35;;
37091;SDS011;23005;51.998;4.502;2022-11-14T00:08:24;42.35;;;23.13;;
37091;SDS011;23005;51.998;4.502;2022-11-14T00:10:01;35.05;;;22.77;;
37091;SDS011;23005;51.998;4.502;2022-11-14T00:11:37;38.47;;;22.83;;
37091;SDS011;23005;51.998;4.502;2022-11-14T00:13:13;31.90;;;21.23;;
37091;SDS011;23005;51.998;4.502;2022-11-14T00:14:50;34.13;;;22.42;;
37091;SDS011;23005;51.998;4.502;2022-11-14T00:16:26;35.35;;;24.58;;
37091;SDS011;23005;51.998;4.502;2022-11-14T00:18:01;36.97;;;23.17;;
37091;SDS011;23005;51.998;4.502;2022-11-14T00:19:36;31.88;;;21.52;;
37091;SDS011;23005;51.998;4.502;2022-11-14T00:21:17;35.25;;;23.20;;
37091;SDS011;23005;51.998;4.502;2022-11-14T00:22:53;36.55;;;22.95;;
37091;SDS011;23005;51.998;4.502;2022-11-14T00:24:28;38.90;;;22.38;;
37091;SDS011;23005;51.998;4.502;2022-11-14T00:26:03;33.05;;;23.08;;
37091;SDS011;23005;51.998;4.502;2022-11-14T00:27:39;43.38;;;22.52;;
37091;SDS011;23005;51.998;4.502;2022-11-14T00:29:16;34.42;;;21.92;;
37091;SDS011;23005;51.998;4.502;2022-11-14T00:30:51;36.33;;;23.13;;
37091;SDS011;23005;51.998;4.502;2022-11-14T00:32:29;36.78;;;22.73;;
37091;SDS011;23005;51.998;4.502;2022-11-14T00:34:05;32.95;;;21.85;;
37091;SDS011;23005;51.998;4.502;2022-11-14T00:35:48;35.63;;;22.63;;
37091;SDS011;23005;51.998;4.502;2022-11-14T00:37:25;32.03;;;22.35;;
37091;SDS011;23005;51.998;4.502;2022-11-14T00:39:01;32.42;;;22.08;;
37091;SDS011;23005;51.998;4.502;2022-11-14T00:40:37;31.20;;;21.60;;
37091;SDS011;23005;51.998;4.502;2022-11-14T00:42:13;32.65;;;21.63;;
37091;SDS011;23005;51.998;4.502;2022-11-14T00:43:50;28.20;;;20.75;;
37091;SDS011;23005;51.998;4.502;2022-11-14T00:45:27;31.77;;;21.83;;
37091;SDS011;23005;51.998;4.502;2022-11-14T00:47:02;30.90;;;22.02;;
37091;SDS011;23005;51.998;4.502;2022-11-14T00:48:37;30.83;;;21.63;;
37091;SDS011;23005;51.998;4.502;2022-11-14T00:50:13;33.03;;;20.20;;
37091;SDS011;23005;51.998;4.502;2022-11-14T00:51:49;33.55;;;21.23;;
37091;SDS011;23005;51.998;4.502;2022-11-14T00:53:24;30.52;;;21.08;;
37091;SDS011;23005;51.998;4.502;2022-11-14T00:54:59;32.50;;;21.63;;
37091;SDS011;23005;51.998;4.502;2022-11-14T00:56:36;31.00;;;21.85;;
37091;SDS011;23005;51.998;4.502;2022-11-14T00:58:14;29.13;;;21.60;;
37091;SDS011;23005;51.998;4.502;2022-11-14T00:59:50;35.53;;;22.35;;
37091;SDS011;23005;51.998;4.502;2022-11-14T01:01:32;33.20;;;22.17;;
37091;SDS011;23005;51.998;4.502;2022-11-14T01:03:13;31.48;;;21.48;;
37091;SDS011;23005;51.998;4.502;2022-11-14T01:04:54;36.13;;;21.58;;
37091;SDS011;23005;51.998;4.502;2022-11-14T01:06:34;32.70;;;22.48;;
37091;SDS011;23005;51.998;4.502;2022-11-14T01:08:10;30.13;;;21.50;;
37091;SDS011;23005;51.998;4.502;2022-11-14T01:09:47;32.30;;;22.10;;
37091;SDS011;23005;51.998;4.502;2022-11-14T01:11:28;33.80;;;20.38;;
37091;SDS011;23005;51.998;4.502;2022-11-14T01:13:04;29.63;;;20.92;;
37091;SDS011;23005;51.998;4.502;2022-11-14T01:14:39;33.95;;;21.63;;
37091;SDS011;23005;51.998;4.502;2022-11-14T01:16:15;32.47;;;22.15;;
37091;SDS011;23005;51.998;4.502;2022-11-14T01:17:52;31.55;;;21.55;;
37091;SDS011;23005;51.998;4.502;2022-11-14T01:19:27;29.83;;;21.15;;
37091;SDS011;23005;51.998;4.502;2022-11-14T01:21:03;33.95;;;21.52;;
37091;SDS011;23005;51.998;4.502;2022-11-14T01:22:41;29.70;;;21.20;;
37091;SDS011;23005;51.998;4.502;2022-11-14T01:24:17;28.30;;;19.58;;
37091;SDS011;23005;51.998;4.502;2022-11-14T01:25:53;30.17;;;20.42;;
37091;SDS011;23005;51.998;4.502;2022-11-14T01:27:29;31.20;;;21.33;;
37091;SDS011;23005;51.998;4.502;2022-11-14T01:29:05;30.55;;;19.88;;
37091;SDS011;23005;51.998;4.502;2022-11-14T01:30:41;30.05;;;19.55;;
37091;SDS011;23005;51.998;4.502;2022-11-14T01:32:17;31.15;;;21.38;;
37091;SDS011;23005;51.998;4.502;2022-11-14T01:33:54;31.67;;;20.55;;
37091;SDS011;23005;51.998;4.502;2022-11-14T01:35:31;33.90;;;21.13;;
37091;SDS011;23005;51.998;4.502;2022-11-14T01:37:09;32.65;;;20.50;;
37091;SDS011;23005;51.998;4.502;2022-11-14T01:38:45;30.13;;;20.08;;
37091;SDS011;23005;51.998;4.502;2022-11-14T01:40:21;30.10;;;19.63;;
37091;SDS011;23005;51.998;4.502;2022-11-14T01:41:59;35.30;;;20.20;;
37091;SDS011;23005;51.998;4.502;2022-11-14T01:43:35;30.25;;;20.20;;
37091;SDS011;23005;51.998;4.502;2022-11-14T01:47:31;24.58;;;18.05;;
37091;SDS011;23005;51.998;4.502;2022-11-14T01:49:13;31.27;;;19.67;;
37091;SDS011;23005;51.998;4.502;2022-11-14T01:50:54;25.50;;;17.92;;
37091;SDS011;23005;51.998;4.502;2022-11-14T01:52:33;28.52;;;18.10;;
37091;SDS011;23005;51.998;4.502;2022-11-14T01:54:15;31.08;;;18.42;;
37091;SDS011;23005;51.998;4.502;2022-11-14T01:55:57;27.80;;;20.17;;
37091;SDS011;23005;51.998;4.502;2022-11-14T01:57:37;26.55;;;18.65;;
37091;SDS011;23005;51.998;4.502;2022-11-14T01:59:19;27.30;;;18.70;;
37091;SDS011;23005;51.998;4.502;2022-11-14T02:00:58;28.50;;;18.23;;
37091;SDS011;23005;51.998;4.502;2022-11-14T02:02:35;29.25;;;18.80;;
37091;SDS011;23005;51.998;4.502;2022-11-14T02:04:19;26.02;;;18.20;;
37091;SDS011;23005;51.998;4.502;2022-11-14T02:06:03;25.70;;;17.98;;
37091;SDS011;23005;51.998;4.502;2022-11-14T02:07:42;31.00;;;17.65;;
37091;SDS011;23005;51.998;4.502;2022-11-14T02:09:19;26.30;;;18.80;;
37091;SDS011;23005;51.998;4.502;2022-11-14T02:10:56;28.23;;;17.98;;
37091;SDS011;23005;51.998;4.502;2022-11-14T02:12:31;27.00;;;18.33;;
37091;SDS011;23005;51.998;4.502;2022-11-14T02:14:09;24.98;;;17.13;;
37091;SDS011;23005;51.998;4.502;2022-11-14T02:15:46;24.27;;;17.42;;
37091;SDS011;23005;51.998;4.502;2022-11-14T02:17:22;25.75;;;18.67;;
37091;SDS011;23005;51.998;4.502;2022-11-14T02:19:05;27.13;;;18.42;;
37091;SDS011;23005;51.998;4.502;2022-11-14T02:20:42;32.08;;;20.30;;
37091;SDS011;23005;51.998;4.502;2022-11-14T02:22:17;28.92;;;18.40;;
37091;SDS011;23005;51.998;4.502;2022-11-14T02:23:53;28.05;;;18.20;;
37091;SDS011;23005;51.998;4.502;2022-11-14T02:25:29;26.38;;;17.67;;
37091;SDS011;23005;51.998;4.502;2022-11-14T02:27:04;28.55;;;18.92;;
37091;SDS011;23005;51.998;4.502;2022-11-14T02:28:41;27.75;;;18.20;;
37091;SDS011;23005;51.998;4.502;2022-11-14T02:30:19;25.88;;;17.80;;
37091;SDS011;23005;51.998;4.502;2022-11-14T02:31:55;24.30;;;17.08;;
37091;SDS011;23005;51.998;4.502;2022-11-14T02:33:31;28.33;;;18.60;;
37091;SDS011;23005;51.998;4.502;2022-11-14T02:35:07;29.15;;;18.40;;
37091;SDS011;23005;51.998;4.502;2022-11-14T02:36:44;26.92;;;17.85;;
37091;SDS011;23005;51.998;4.502;2022-11-14T02:38:19;26.25;;;17.33;;
37091;SDS011;23005;51.998;4.502;2022-11-14T02:39:54;28.33;;;17.17;;
37091;SDS011;23005;51.998;4.502;2022-11-14T02:41:33;27.33;;;18.83;;
37091;SDS011;23005;51.998;4.502;2022-11-14T02:43:09;26.90;;;17.77;;
37091;SDS011;23005;51.998;4.502;2022-11-14T02:44:45;24.88;;;16.75;;
37091;SDS011;23005;51.998;4.502;2022-11-14T02:46:21;27.10;;;18.23;;
37091;SDS011;23005;51.998;4.502;2022-11-14T02:47:56;29.25;;;18.73;;
37091;SDS011;23005;51.998;4.502;2022-11-14T02:49:32;26.73;;;17.92;;
37091;SDS011;23005;51.998;4.502;2022-11-14T02:51:13;25.42;;;17.40;;
37091;SDS011;23005;51.998;4.502;2022-11-14T02:52:50;27.25;;;17.83;;
37091;SDS011;23005;51.998;4.502;2022-11-14T02:54:25;28.80;;;18.25;;
37091;SDS011;23005;51.998;4.502;2022-11-14T02:56:01;27.08;;;18.35;;
37091;SDS011;23005;51.998;4.502;2022-11-14T02:57:42;26.20;;;18.33;;
37091;SDS011;23005;51.998;4.502;2022-11-14T02:59:18;28.65;;;18.55;;
37091;SDS011;23005;51.998;4.502;2022-11-14T03:00:54;26.08;;;18.85;;
37091;SDS011;23005;51.998;4.502;2022-11-14T03:02:51;30.23;;;19.38;;
37091;SDS011;23005;51.998;4.502;2022-11-14T03:05:57;26.67;;;17.88;;
37091;SDS011;23005;51.998;4.502;2022-11-14T03:07:33;32.78;;;18.33;;
37091;SDS011;23005;51.998;4.502;2022-11-14T03:09:10;29.98;;;19.85;;
37091;SDS011;23005;51.998;4.502;2022-11-14T03:10:46;32.97;;;20.60;;
37091;SDS011;23005;51.998;4.502;2022-11-14T03:12:22;32.20;;;20.30;;
37091;SDS011;23005;51.998;4.502;2022-11-14T03:13:58;28.88;;;19.95;;
37091;SDS011;23005;51.998;4.502;2022-11-14T03:15:35;32.50;;;19.17;;
37091;SDS011;23005;51.998;4.502;2022-11-14T03:17:11;33.38;;;21.55;;
37091;SDS011;23005;51.998;4.502;2022-11-14T03:18:47;32.85;;;21.23;;
37091;SDS011;23005;51.998;4.502;2022-11-14T03:20:23;36.13;;;21.50;;
37091;SDS011;23005;51.998;4.502;2022-11-14T03:21:59;35.50;;;22.75;;
37091;SDS011;23005;51.998;4.502;2022-11-14T03:23:34;34.20;;;21.75;;
37091;SDS011;23005;51.998;4.502;2022-11-14T03:25:12;34.10;;;21.35;;
37091;SDS011;23005;51.998;4.502;2022-11-14T03:26:47;37.22;;;22.90;;
37091;SDS011;23005;51.998;4.502;2022-11-14T03:28:22;33.78;;;22.13;;
37091;SDS011;23005;51.998;4.502;2022-11-14T03:29:57;35.35;;;21.73;;
37091;SDS011;23005;51.998;4.502;2022-11-14T03:31:33;34.42;;;22.50;;
37091;SDS011;23005;51.998;4.502;2022-11-14T03:33:10;36.72;;;23.05;;
37091;SDS011;23005;51.998;4.502;2022-11-14T03:34:46;33.90;;;22.35;;
37091;SDS011;23005;51.998;4.502;2022-11-14T03:36:21;36.17;;;22.67;;
37091;SDS011;23005;51.998;4.502;2022-11-14T03:37:57;38.50;;;22.55;;
37091;SDS011;23005;51.998;4.502;2022-11-14T03:39:33;37.05;;;21.83;;
37091;SDS011;23005;51.998;4.502;2022-11-14T03:41:15;30.25;;;20.73;;
37091;SDS011;23005;51.998;4.502;2022-11-14T03:42:51;32.15;;;21.52;;
37091;SDS011;23005;51.998;4.502;2022-11-14T03:44:28;35.17;;;22.13;;
37091;SDS011;23005;51.998;4.502;2022-11-14T03:46:04;36.10;;;22.55;;
37091;SDS011;23005;51.998;4.502;2022-11-14T03:47:40;34.00;;;21.92;;
37091;SDS011;23005;51.998;4.502;2022-11-14T03:49:16;31.88;;;21.17;;
37091;SDS011;23005;51.998;4.502;2022-11-14T03:50:53;37.67;;;22.08;;
37091;SDS011;23005;51.998;4.502;2022-11-14T03:52:30;34.95;;;21.08;;
37091;SDS011;23005;51.998;4.502;2022-11-14T03:54:06;31.25;;;20.80;;
37091;SDS011;23005;51.998;4.502;2022-11-14T03:55:42;34.30;;;21.75;;
37091;SDS011;23005;51.998;4.502;2022-11-14T03:57:20;35.95;;;22.13;;
37091;SDS011;23005;51.998;4.502;2022-11-14T03:58:56;31.13;;;21.50;;
37091;SDS011;23005;51.998;4.502;2022-11-14T04:00:31;34.45;;;21.98;;
37091;SDS011;23005;51.998;4.502;2022-11-14T04:02:07;31.67;;;20.15;;
37091;SDS011;23005;51.998;4.502;2022-11-14T04:03:48;36.95;;;21.73;;
37091;SDS011;23005;51.998;4.502;2022-11-14T04:05:30;31.30;;;20.55;;
37091;SDS011;23005;51.998;4.502;2022-11-14T04:07:11;32.78;;;21.13;;
37091;SDS011;23005;51.998;4.502;2022-11-14T04:08:47;35.67;;;20.60;;
37091;SDS011;23005;51.998;4.502;2022-11-14T04:10:23;31.63;;;20.40;;
37091;SDS011;23005;51.998;4.502;2022-11-14T04:11:58;37.30;;;21.95;;
37091;SDS011;23005;51.998;4.502;2022-11-14T04:13:35;37.40;;;21.27;;
37091;SDS011;23005;51.998;4.502;2022-11-14T04:15:10;36.08;;;21.83;;
37091;SDS011;23005;51.998;4.502;2022-11-14T04:16:46;35.30;;;21.80;;
37091;SDS011;23005;51.998;4.502;2022-11-14T04:18:20;36.25;;;22.52;;
37091;SDS011;23005;51.998;4.502;2022-11-14T04:19:56;38.15;;;21.98;;
37091;SDS011;23005;51.998;4.502;2022-11-14T04:21:32;32.90;;;22.13;;
37091;SDS011;23005;51.998;4.502;2022-11-14T04:23:08;35.67;;;22.42;;
37091;SDS011;23005;51.998;4.502;2022-11-14T04:24:43;38.97;;;23.38;;
37091;SDS011;23005;51.998;4.502;2022-11-14T04:26:19;38.28;;;22.92;;
37091;SDS011;23005;51.998;4.502;2022-11-14T04:27:55;39.78;;;24.35;;
37091;SDS011;23005;51.998;4.502;2022-11-14T04:29:32;38.88;;;24.02;;
37091;SDS011;23005;51.998;4.502;2022-11-14T04:32:33;43.42;;;24.33;;
37091;SDS011;23005;51.998;4.502;2022-11-14T04:34:08;46.25;;;25.23;;
37091;SDS011;23005;51.998;4.502;2022-11-14T04:35:43;44.95;;;26.08;;
37091;SDS011;23005;51.998;4.502;2022-11-14T04:37:21;41.20;;;25.25;;
37091;SDS011;23005;51.998;4.502;2022-11-14T04:38:58;43.17;;;25.70;;
37091;SDS011;23005;51.998;4.502;2022-11-14T04:40:34;42.88;;;26.88;;
37091;SDS011;23005;51.998;4.502;2022-11-14T04:42:10;43.53;;;26.80;;
37091;SDS011;23005;51.998;4.502;2022-11-14T04:43:46;48.80;;;27.50;;
37091;SDS011;23005;51.998;4.502;2022-11-14T04:45:25;52.65;;;27.77;;
37091;SDS011;23005;51.998;4.502;2022-11-14T04:47:00;52.58;;;30.55;;
37091;SDS011;23005;51.998;4.502;2022-11-14T04:48:36;45.80;;;28.23;;
37091;SDS011;23005;51.998;4.502;2022-11-14T04:50:12;48.95;;;28.65;;
37091;SDS011;23005;51.998;4.502;2022-11-14T04:51:48;43.67;;;26.65;;
37091;SDS011;23005;51.998;4.502;2022-11-14T04:53:25;50.63;;;29.85;;
37091;SDS011;23005;51.998;4.502;2022-11-14T04:55:01;54.83;;;29.10;;
37091;SDS011;23005;51.998;4.502;2022-11-14T04:56:38;52.22;;;29.63;;
37091;SDS011;23005;51.998;4.502;2022-11-14T04:58:14;50.28;;;29.75;;
37091;SDS011;23005;51.998;4.502;2022-11-14T04:59:50;45.63;;;27.80;;
37091;SDS011;23005;51.998;4.502;2022-11-14T05:01:32;53.20;;;30.08;;
37091;SDS011;23005;51.998;4.502;2022-11-14T05:03:13;48.95;;;29.13;;
37091;SDS011;23005;51.998;4.502;2022-11-14T05:04:53;48.30;;;28.75;;
37091;SDS011;23005;51.998;4.502;2022-11-14T05:06:34;54.97;;;30.48;;
37091;SDS011;23005;51.998;4.502;2022-11-14T05:08:09;53.25;;;29.95;;
37091;SDS011;23005;51.998;4.502;2022-11-14T05:09:45;51.88;;;29.40;;
37091;SDS011;23005;51.998;4.502;2022-11-14T05:11:26;48.65;;;29.02;;
37091;SDS011;23005;51.998;4.502;2022-11-14T05:13:03;51.60;;;29.48;;
37091;SDS011;23005;51.998;4.502;2022-11-14T05:14:39;54.88;;;31.45;;
37091;SDS011;23005;51.998;4.502;2022-11-14T05:16:16;49.53;;;29.23;;
37091;SDS011;23005;51.998;4.502;2022-11-14T05:17:53;53.13;;;31.08;;
37091;SDS011;23005;51.998;4.502;2022-11-14T05:19:31;52.95;;;30.85;;
37091;SDS011;23005;51.998;4.502;2022-11-14T05:21:11;52.58;;;29.25;;
37091;SDS011;23005;51.998;4.502;2022-11-14T05:22:51;56.28;;;30.83;;
37091;SDS011;23005;51.998;4.502;2022-11-14T05:24:27;52.17;;;29.83;;
37091;SDS011;23005;51.998;4.502;2022-11-14T05:26:03;52.08;;;30.08;;
37091;SDS011;23005;51.998;4.502;2022-11-14T05:27:41;52.25;;;29.10;;
37091;SDS011;23005;51.998;4.502;2022-11-14T05:29:17;52.88;;;30.70;;
37091;SDS011;23005;51.998;4.502;2022-11-14T05:30:59;59.45;;;33.42;;
37091;SDS011;23005;51.998;4.502;2022-11-14T05:32:35;56.83;;;32.42;;
37091;SDS011;23005;51.998;4.502;2022-11-14T05:34:12;54.95;;;32.13;;
37091;SDS011;23005;51.998;4.502;2022-11-14T05:35:48;57.72;;;32.85;;
37091;SDS011;23005;51.998;4.502;2022-11-14T05:37:23;56.90;;;32.25;;
37091;SDS011;23005;51.998;4.502;2022-11-14T05:39:00;54.30;;;31.50;;
37091;SDS011;23005;51.998;4.502;2022-11-14T05:40:36;61.72;;;33.30;;
37091;SDS011;23005;51.998;4.502;2022-11-14T05:42:11;61.42;;;33.47;;
37091;SDS011;23005;51.998;4.502;2022-11-14T05:43:48;59.05;;;32.05;;
37091;SDS011;23005;51.998;4.502;2022-11-14T05:45:27;66.40;;;35.60;;
37091;SDS011;23005;51.998;4.502;2022-11-14T05:47:02;55.90;;;32.55;;
37091;SDS011;23005;51.998;4.502;2022-11-14T05:48:38;58.00;;;32.97;;
37091;SDS011;23005;51.998;4.502;2022-11-14T05:50:16;55.45;;;33.38;;
37091;SDS011;23005;51.998;4.502;2022-11-14T05:51:51;65.60;;;33.72;;
37091;SDS011;23005;51.998;4.502;2022-11-14T05:53:27;58.47;;;33.60;;
37091;SDS011;23005;51.998;4.502;2022-11-14T05:55:04;62.78;;;35.35;;
37091;SDS011;23005;51.998;4.502;2022-11-14T05:56:42;59.38;;;33.08;;
37091;SDS011;23005;51.998;4.502;2022-11-14T05:58:18;66.80;;;34.13;;
37091;SDS011;23005;51.998;4.502;2022-11-14T05:59:54;61.65;;;34.72;;
37091;SDS011;23005;51.998;4.502;2022-11-14T06:01:32;62.78;;;34.30;;
37091;SDS011;23005;51.998;4.502;2022-11-14T06:03:15;64.82;;;34.90;;
37091;SDS011;23005;51.998;4.502;2022-11-14T06:04:55;60.35;;;33.50;;
37091;SDS011;23005;51.998;4.502;2022-11-14T06:06:38;66.32;;;34.63;;
37091;SDS011;23005;51.998;4.502;2022-11-14T06:08:13;62.78;;;33.83;;
37091;SDS011;23005;51.998;4.502;2022-11-14T06:09:48;59.95;;;34.25;;
37091;SDS011;23005;51.998;4.502;2022-11-14T06:11:29;62.80;;;34.67;;
37091;SDS011;23005;51.998;4.502;2022-11-14T06:13:04;64.30;;;33.35;;
37091;SDS011;23005;51.998;4.502;2022-11-14T06:14:42;64.47;;;35.53;;
37091;SDS011;23005;51.998;4.502;2022-11-14T06:16:18;59.15;;;34.08;;
37091;SDS011;23005;51.998;4.502;2022-11-14T06:17:55;67.03;;;35.58;;
37091;SDS011;23005;51.998;4.502;2022-11-14T06:19:31;65.80;;;34.80;;
37091;SDS011;23005;51.998;4.502;2022-11-14T06:21:11;61.53;;;34.33;;
37091;SDS011;23005;51.998;4.502;2022-11-14T06:22:50;71.82;;;36.17;;
37091;SDS011;23005;51.998;4.502;2022-11-14T06:24:28;70.07;;;36.58;;
37091;SDS011;23005;51.998;4.502;2022-11-14T06:26:03;69.60;;;36.10;;
37091;SDS011;23005;51.998;4.502;2022-11-14T06:27:41;65.05;;;34.40;;
37091;SDS011;23005;51.998;4.502;2022-11-14T06:29:16;68.57;;;36.42;;
37091;SDS011;23005;51.998;4.502;2022-11-14T06:30:55;58.13;;;34.40;;
37091;SDS011;23005;51.998;4.502;2022-11-14T06:32:32;70.55;;;36.35;;
37091;SDS011;23005;51.998;4.502;2022-11-14T06:34:07;64.32;;;34.40;;
37091;SDS011;23005;51.998;4.502;2022-11-14T06:35:44;66.97;;;35.65;;
37091;SDS011;23005;51.998;4.502;2022-11-14T06:37:20;63.00;;;35.13;;
37091;SDS011;23005;51.998;4.502;2022-11-14T06:38:57;69.00;;;36.97;;
37091;SDS011;23005;51.998;4.502;2022-11-14T06:40:33;69.18;;;37.00;;
37091;SDS011;23005;51.998;4.502;2022-11-14T06:42:09;66.95;;;36.22;;
37091;SDS011;23005;51.998;4.502;2022-11-14T06:43:46;66.93;;;35.70;;
37091;SDS011;23005;51.998;4.502;2022-11-14T06:45:25;62.40;;;35.42;;
37091;SDS011;23005;51.998;4.502;2022-11-14T06:47:00;65.63;;;36.65;;
37091;SDS011;23005;51.998;4.502;2022-11-14T06:48:35;69.85;;;36.63;;
37091;SDS011;23005;51.998;4.502;2022-11-14T06:50:11;69.22;;;36.22;;
37091;SDS011;23005;51.998;4.502;2022-11-14T06:51:47;63.85;;;34.95;;
37091;SDS011;23005;51.998;4.502;2022-11-14T06:53:26;65.70;;;34.85;;
37091;SDS011;23005;51.998;4.502;2022-11-14T06:55:05;68.13;;;34.92;;
37091;SDS011;23005;51.998;4.502;2022-11-14T06:56:41;61.53;;;35.45;;
37091;SDS011;23005;51.998;4.502;2022-11-14T06:58:16;72.10;;;37.63;;
37091;SDS011;23005;51.998;4.502;2022-11-14T06:59:51;62.75;;;34.47;;
37091;SDS011;23005;51.998;4.502;2022-11-14T07:01:32;69.57;;;36.90;;
37091;SDS011;23005;51.998;4.502;2022-11-14T07:03:12;60.45;;;33.67;;
37091;SDS011;23005;51.998;4.502;2022-11-14T07:06:15;65.30;;;36.03;;
37091;SDS011;23005;51.998;4.502;2022-11-14T07:07:53;66.53;;;37.00;;
37091;SDS011;23005;51.998;4.502;2022-11-14T07:09:31;66.00;;;34.70;;
37091;SDS011;23005;51.998;4.502;2022-11-14T07:11:14;65.70;;;35.55;;
37091;SDS011;23005;51.998;4.502;2022-11-14T07:12:52;63.92;;;33.92;;
37091;SDS011;23005;51.998;4.502;2022-11-14T07:14:28;70.05;;;36.50;;
37091;SDS011;23005;51.998;4.502;2022-11-14T07:16:03;63.63;;;35.20;;
37091;SDS011;23005;51.998;4.502;2022-11-14T07:17:40;73.88;;;39.35;;
37091;SDS011;23005;51.998;4.502;2022-11-14T07:19:17;77.70;;;38.15;;
37091;SDS011;23005;51.998;4.502;2022-11-14T07:20:57;65.03;;;36.08;;
37091;SDS011;23005;51.998;4.502;2022-11-14T07:22:35;66.53;;;36.30;;
37091;SDS011;23005;51.998;4.502;2022-11-14T07:24:09;62.38;;;34.75;;
37091;SDS011;23005;51.998;4.502;2022-11-14T07:25:45;72.45;;;37.72;;
37091;SDS011;23005;51.998;4.502;2022-11-14T07:27:22;65.35;;;34.28;;
37091;SDS011;23005;51.998;4.502;2022-11-14T07:28:58;67.00;;;34.40;;
37091;SDS011;23005;51.998;4.502;2022-11-14T07:30:36;67.60;;;35.35;;
37091;SDS011;23005;51.998;4.502;2022-11-14T07:32:12;69.25;;;36.17;;
37091;SDS011;23005;51.998;4.502;2022-11-14T07:33:46;64.10;;;34.05;;
37091;SDS011;23005;51.998;4.502;2022-11-14T07:35:22;62.83;;;34.10;;
37091;SDS011;23005;51.998;4.502;2022-11-14T07:36:57;66.80;;;35.17;;
37091;SDS011;23005;51.998;4.502;2022-11-14T07:38:34;63.88;;;34.00;;
37091;SDS011;23005;51.998;4.502;2022-11-14T07:40:12;63.45;;;34.95;;
37091;SDS011;23005;51.998;4.502;2022-11-14T07:41:48;62.88;;;33.42;;
37091;SDS011;23005;51.998;4.502;2022-11-14T07:43:25;69.18;;;36.58;;
37091;SDS011;23005;51.998;4.502;2022-11-14T07:45:02;66.20;;;34.92;;
37091;SDS011;23005;51.998;4.502;2022-11-14T07:46:38;58.88;;;32.80;;
37091;SDS011;23005;51.998;4.502;2022-11-14T07:48:14;63.30;;;33.42;;
37091;SDS011;23005;51.998;4.502;2022-11-14T07:49:51;65.50;;;35.13;;
37091;SDS011;23005;51.998;4.502;2022-11-14T07:51:32;63.20;;;34.15;;
37091;SDS011;23005;51.998;4.502;2022-11-14T07:53:09;63.75;;;33.90;;
37091;SDS011;23005;51.998;4.502;2022-11-14T07:54:45;64.45;;;35.67;;
37091;SDS011;23005;51.998;4.502;2022-11-14T07:56:19;58.47;;;32.80;;
37091;SDS011;23005;51.998;4.502;2022-11-14T07:57:57;64.95;;;34.60;;
37091;SDS011;23005;51.998;4.502;2022-11-14T07:59:35;66.28;;;33.22;;
37091;SDS011;23005;51.998;4.502;2022-11-14T08:01:15;60.70;;;32.85;;
37091;SDS011;23005;51.998;4.502;2022-11-14T08:02:51;65.15;;;33.97;;
37091;SDS011;23005;51.998;4.502;2022-11-14T08:04:32;55.08;;;31.40;;
37091;SDS011;23005;51.998;4.502;2022-11-14T08:06:13;61.70;;;33.55;;
37091;SDS011;23005;51.998;4.502;2022-11-14T08:07:49;55.40;;;31.55;;
37091;SDS011;23005;51.998;4.502;2022-11-14T08:09:24;53.63;;;30.23;;
37091;SDS011;23005;51.998;4.502;2022-11-14T08:10:59;58.60;;;31.35;;
37091;SDS011;23005;51.998;4.502;2022-11-14T08:12:35;57.40;;;31.48;;
37091;SDS011;23005;51.998;4.502;2022-11-14T08:14:11;63.13;;;33.17;;
37091;SDS011;23005;51.998;4.502;2022-11-14T08:15:47;58.00;;;31.38;;
37091;SDS011;23005;51.998;4.502;2022-11-14T08:17:23;58.65;;;33.22;;
37091;SDS011;23005;51.998;4.502;2022-11-14T08:18:58;55.35;;;30.63;;
37091;SDS011;23005;51.998;4.502;2022-11-14T08:20:34;60.67;;;31.55;;
37091;SDS011;23005;51.998;4.502;2022-11-14T08:22:10;53.15;;;31.30;;
37091;SDS011;23005;51.998;4.502;2022-11-14T08:23:45;53.53;;;30.48;;
37091;SDS011;23005;51.998;4.502;2022-11-14T08:25:20;51.72;;;30.70;;
37091;SDS011;23005;51.998;4.502;2022-11-14T08:26:56;54.75;;;30.95;;
37091;SDS011;23005;51.998;4.502;2022-11-14T08:28:32;55.08;;;30.50;;
37091;SDS011;23005;51.998;4.502;2022-11-14T08:30:09;50.88;;;30.30;;
37091;SDS011;23005;51.998;4.502;2022-11-14T08:31:48;62.92;;;31.52;;
37091;SDS011;23005;51.998;4.502;2022-11-14T08:33:29;53.35;;;31.48;;
37091;SDS011;23005;51.998;4.502;2022-11-14T08:35:04;50.88;;;28.95;;
37091;SDS011;23005;51.998;4.502;2022-11-14T08:36:40;51.40;;;29.58;;
37091;SDS011;23005;51.998;4.502;2022-11-14T08:38:16;53.33;;;28.08;;
37091;SDS011;23005;51.998;4.502;2022-11-14T08:39:52;49.00;;;28.35;;
37091;SDS011;23005;51.998;4.502;2022-11-14T08:41:33;48.67;;;27.60;;
37091;SDS011;23005;51.998;4.502;2022-11-14T08:43:09;46.63;;;26.13;;
37091;SDS011;23005;51.998;4.502;2022-11-14T08:44:44;45.13;;;28.00;;
37091;SDS011;23005;51.998;4.502;2022-11-14T08:46:27;52.25;;;25.98;;
37091;SDS011;23005;51.998;4.502;2022-11-14T08:48:04;45.30;;;25.42;;
37091;SDS011;23005;51.998;4.502;2022-11-14T08:49:40;43.15;;;25.80;;
37091;SDS011;23005;51.998;4.502;2022-11-14T08:51:21;43.17;;;26.08;;
37091;SDS011;23005;51.998;4.502;2022-11-14T08:52:57;46.03;;;26.17;;
37091;SDS011;23005;51.998;4.502;2022-11-14T08:54:33;43.72;;;26.48;;
37091;SDS011;23005;51.998;4.502;2022-11-14T08:56:09;42.75;;;24.70;;
37091;SDS011;23005;51.998;4.502;2022-11-14T08:57:45;45.78;;;25.17;;
37091;SDS011;23005;51.998;4.502;2022-11-14T08:59:24;44.25;;;25.42;;
37091;SDS011;23005;51.998;4.502;2022-11-14T09:01:00;43.28;;;25.40;;
37091;SDS011;23005;51.998;4.502;2022-11-14T09:02:36;48.03;;;26.85;;
37091;SDS011;23005;51.998;4.502;2022-11-14T09:04:18;39.90;;;24.02;;
37091;SDS011;23005;51.998;4.502;2022-11-14T09:05:59;44.53;;;25.85;;
37091;SDS011;23005;51.998;4.502;2022-11-14T09:07:36;47.63;;;25.65;;
37091;SDS011;23005;51.998;4.502;2022-11-14T09:09:11;41.35;;;24.80;;
37091;SDS011;23005;51.998;4.502;2022-11-14T09:10:46;46.67;;;27.10;;
37091;SDS011;23005;51.998;4.502;2022-11-14T09:12:21;47.83;;;25.75;;
37091;SDS011;23005;51.998;4.502;2022-11-14T09:13:56;41.42;;;24.42;;
37091;SDS011;23005;51.998;4.502;2022-11-14T09:15:32;42.38;;;24.92;;
37091;SDS011;23005;51.998;4.502;2022-11-14T09:17:07;46.50;;;26.20;;
37091;SDS011;23005;51.998;4.502;2022-11-14T09:18:42;40.45;;;23.63;;
37091;SDS011;23005;51.998;4.502;2022-11-14T09:20:19;42.70;;;24.38;;
37091;SDS011;23005;51.998;4.502;2022-11-14T09:21:55;41.88;;;24.58;;
37091;SDS011;23005;51.998;4.502;2022-11-14T09:23:31;39.55;;;23.38;;
37091;SDS011;23005;51.998;4.502;2022-11-14T09:25:07;42.92;;;23.02;;
37091;SDS011;23005;51.998;4.502;2022-11-14T09:26:43;39.13;;;23.83;;
37091;SDS011;23005;51.998;4.502;2022-11-14T09:28:19;38.85;;;23.17;;
37091;SDS011;23005;51.998;4.502;2022-11-14T09:29:55;34.47;;;21.25;;
37091;SDS011;23005;51.998;4.502;2022-11-14T09:31:32;38.08;;;22.50;;
37091;SDS011;23005;51.998;4.502;2022-11-14T09:33:09;38.70;;;22.77;;